Time,TemperatureF,DewpointF,PressureIn,WindDirection,WindDirectionDegrees,WindSpeedMPH,WindSpeedGustMPH,Humidity,HourlyPrecipIn,Conditions,Clouds,dailyrainin,SoftwareType,DateUTC
2013-04-15 00:00:00,40.1,31.4,30.21,North,9,0.0,0.0,71,0.00,,,0.00,Wunderground v.1.15,2013-04-15 04:00:00,
2013-04-15 00:02:00,40.0,31.4,30.21,North,9,0.0,0.0,71,0.00,,,0.00,Wunderground v.1.15,2013-04-15 04:02:00,
2013-04-15 00:04:00,40.0,31.4,30.21,North,9,0.0,0.0,71,0.00,,,0.00,Wunderground v.1.15,2013-04-15 04:04:00,
2013-04-15 00:09:00,39.9,31.3,30.21,North,9,0.0,0.0,71,0.00,,,0.00,Wunderground v.1.15,2013-04-15 04:09:00,
2013-04-15 00:14:00,39.9,31.6,30.21,North,9,0.0,0.0,72,0.00,,,0.00,Wunderground v.1.15,2013-04-15 04:14:00,
2013-04-15 00:19:00,39.8,31.5,30.21,North,9,0.0,0.0,72,0.00,,,0.00,Wunderground v.1.15,2013-04-15 04:19:00,
2013-04-15 00:25:00,39.6,31.7,30.22,North,9,0.0,0.0,73,0.00,,,0.00,Wunderground v.1.15,2013-04-15 04:25:00,
2013-04-15 00:31:00,39.4,31.5,30.22,North,9,0.0,0.0,73,0.00,,,0.00,Wunderground v.1.15,2013-04-15 04:31:00,
2013-04-15 00:37:00,39.3,31.7,30.22,North,9,0.0,0.0,74,0.00,,,0.00,Wunderground v.1.15,2013-04-15 04:37:00,
2013-04-15 00:43:00,39.1,31.8,30.22,North,9,0.0,0.0,75,0.00,,,0.00,Wunderground v.1.15,2013-04-15 04:43:00,
2013-04-15 00:49:00,38.8,31.9,30.23,North,9,0.0,0.0,76,0.00,,,0.00,Wunderground v.1.15,2013-04-15 04:49:00,
2013-04-15 00:53:00,38.7,31.8,30.22,North,9,0.0,0.0,76,0.00,,,0.00,Wunderground v.1.15,2013-04-15 04:53:00,
2013-04-15 00:59:00,38.6,31.7,30.23,North,9,0.0,0.0,76,0.00,,,0.00,Wunderground v.1.15,2013-04-15 04:59:00,
2013-04-15 01:04:00,38.4,30.8,30.23,North,9,0.0,0.0,74,0.00,,,0.00,Wunderground v.1.15,2013-04-15 05:04:00,
2013-04-15 01:09:00,38.4,31.2,30.22,North,9,0.0,0.0,75,0.00,,,0.00,Wunderground v.1.15,2013-04-15 05:09:00,
2013-04-15 01:14:00,38.3,31.4,30.22,North,9,0.0,0.0,76,0.00,,,0.00,Wunderground v.1.15,2013-04-15 05:14:00,
2013-04-15 01:19:00,38.2,31.3,30.22,North,9,0.0,0.0,76,0.00,,,0.00,Wunderground v.1.15,2013-04-15 05:19:00,
2013-04-15 01:25:00,38.1,31.2,30.22,North,9,0.0,0.0,76,0.00,,,0.00,Wunderground v.1.15,2013-04-15 05:25:00,
2013-04-15 01:30:00,38.0,31.7,30.22,North,9,0.0,0.0,78,0.00,,,0.00,Wunderground v.1.15,2013-04-15 05:30:00,
2013-04-15 01:36:00,37.8,31.2,30.22,North,9,0.0,0.0,77,0.00,,,0.00,Wunderground v.1.15,2013-04-15 05:36:00,
2013-04-15 01:42:00,37.7,31.1,30.22,North,9,0.0,0.0,77,0.00,,,0.00,Wunderground v.1.15,2013-04-15 05:42:00,
2013-04-15 01:48:00,37.6,31.0,30.22,North,9,0.0,0.0,77,0.00,,,0.00,Wunderground v.1.15,2013-04-15 05:48:00,
2013-04-15 01:53:00,37.4,30.8,30.22,North,9,0.0,0.0,77,0.00,,,0.00,Wunderground v.1.15,2013-04-15 05:53:00,
2013-04-15 01:58:00,37.3,31.4,30.22,North,9,0.0,0.0,79,0.00,,,0.00,Wunderground v.1.15,2013-04-15 05:58:00,
2013-04-15 02:04:00,37.2,31.3,30.22,North,9,0.0,0.0,79,0.00,,,0.00,Wunderground v.1.15,2013-04-15 06:04:00,
2013-04-15 02:09:00,37.2,31.9,30.22,North,9,0.0,0.0,81,0.00,,,0.00,Wunderground v.1.15,2013-04-15 06:09:00,
2013-04-15 02:14:00,37.0,31.7,30.22,North,9,0.0,0.0,81,0.00,,,0.00,Wunderground v.1.15,2013-04-15 06:14:00,
2013-04-15 02:20:00,36.9,31.9,30.22,North,9,0.0,0.0,82,0.00,,,0.00,Wunderground v.1.15,2013-04-15 06:20:00,
2013-04-15 02:25:00,36.8,31.8,30.22,North,9,0.0,0.0,82,0.00,,,0.00,Wunderground v.1.15,2013-04-15 06:25:00,
2013-04-15 02:31:00,36.6,31.9,30.22,North,9,0.0,0.0,83,0.00,,,0.00,Wunderground v.1.15,2013-04-15 06:31:00,
2013-04-15 02:37:00,36.4,31.4,30.22,North,9,0.0,0.0,82,0.00,,,0.00,Wunderground v.1.15,2013-04-15 06:37:00,
2013-04-15 02:43:00,36.3,31.6,30.22,North,9,0.0,0.0,83,0.00,,,0.00,Wunderground v.1.15,2013-04-15 06:43:00,
2013-04-15 02:48:00,36.3,31.6,30.22,North,9,0.0,0.0,83,0.00,,,0.00,Wunderground v.1.15,2013-04-15 06:48:00,
2013-04-15 02:54:00,36.2,31.8,30.22,North,9,0.0,0.0,84,0.00,,,0.00,Wunderground v.1.15,2013-04-15 06:54:00,
2013-04-15 02:58:00,36.1,31.7,30.22,North,9,0.0,0.0,84,0.00,,,0.00,Wunderground v.1.15,2013-04-15 06:58:00,
2013-04-15 03:04:00,36.0,31.3,30.22,North,9,0.0,0.0,83,0.00,,,0.00,Wunderground v.1.15,2013-04-15 07:04:00,
2013-04-15 03:46:00,35.2,31.4,30.24,North,9,0.0,0.0,86,0.00,,,0.00,Wunderground v.1.15,2013-04-15 07:46:00,
2013-04-15 03:49:00,35.2,31.4,30.24,North,9,0.0,0.0,86,0.00,,,0.00,Wunderground v.1.15,2013-04-15 07:49:00,
2013-04-15 03:50:00,35.2,31.4,30.24,North,9,0.0,0.0,86,0.00,,,0.00,Wunderground v.1.15,2013-04-15 07:50:00,
2013-04-15 03:53:00,35.2,31.7,30.24,North,9,0.0,0.0,87,0.00,,,0.00,Wunderground v.1.15,2013-04-15 07:53:00,
2013-04-15 03:55:00,35.1,31.3,30.24,North,9,0.0,0.0,86,0.00,,,0.00,Wunderground v.1.15,2013-04-15 07:55:00,
2013-04-15 04:00:00,35.1,31.3,30.25,North,9,0.0,0.0,86,0.00,,,0.00,Wunderground v.1.15,2013-04-15 08:00:00,
2013-04-15 04:06:00,35.0,30.9,30.25,North,9,0.0,0.0,85,0.00,,,0.00,Wunderground v.1.15,2013-04-15 08:06:00,
2013-04-15 04:12:00,34.9,31.1,30.25,North,9,0.0,0.0,86,0.00,,,0.00,Wunderground v.1.15,2013-04-15 08:12:00,
2013-04-15 04:18:00,34.8,31.0,30.25,North,9,0.0,0.0,86,0.00,,,0.00,Wunderground v.1.15,2013-04-15 08:18:00,
2013-04-15 04:23:00,34.8,31.3,30.25,North,9,0.0,0.0,87,0.00,,,0.00,Wunderground v.1.15,2013-04-15 08:23:00,
2013-04-15 04:29:00,34.8,31.3,30.25,North,9,0.0,0.0,87,0.00,,,0.00,Wunderground v.1.15,2013-04-15 08:29:00,
2013-04-15 04:34:00,35.4,30.5,30.25,NE,44,0.0,0.0,82,0.00,,,0.00,Wunderground v.1.15,2013-04-15 08:34:00,
2013-04-15 04:40:00,35.4,30.8,30.26,NE,44,0.0,0.0,83,0.00,,,0.00,Wunderground v.1.15,2013-04-15 08:40:00,
2013-04-15 04:41:00,35.4,30.8,30.26,NE,44,0.0,0.0,83,0.00,,,0.00,Wunderground v.1.15,2013-04-15 08:41:00,
2013-04-15 04:44:00,35.5,31.1,30.26,NE,44,0.0,0.0,84,0.00,,,0.00,Wunderground v.1.15,2013-04-15 08:44:00,
2013-04-15 04:49:00,35.5,30.8,30.26,NE,44,0.0,0.0,83,0.00,,,0.00,Wunderground v.1.15,2013-04-15 08:49:00,
2013-04-15 04:54:00,35.4,30.8,30.26,NE,44,0.0,0.0,83,0.00,,,0.00,Wunderground v.1.15,2013-04-15 08:54:00,
2013-04-15 05:00:00,35.4,30.8,30.27,NE,44,0.0,0.0,83,0.00,,,0.00,Wunderground v.1.15,2013-04-15 09:00:00,
2013-04-15 05:06:00,35.5,30.8,30.27,NE,44,0.0,0.0,83,0.00,,,0.00,Wunderground v.1.15,2013-04-15 09:06:00,
2013-04-15 05:11:00,35.8,31.1,30.27,NE,44,0.0,0.0,83,0.00,,,0.00,Wunderground v.1.15,2013-04-15 09:11:00,
2013-04-15 05:17:00,36.1,31.4,30.28,NE,44,0.0,0.0,83,0.00,,,0.00,Wunderground v.1.15,2013-04-15 09:17:00,
2013-04-15 05:22:00,36.3,31.3,30.29,NE,44,0.0,0.0,82,0.00,,,0.00,Wunderground v.1.15,2013-04-15 09:22:00,
2013-04-15 05:27:00,36.2,31.2,30.29,NE,44,0.0,0.0,82,0.00,,,0.00,Wunderground v.1.15,2013-04-15 09:27:00,
2013-04-15 05:33:00,36.1,31.1,30.29,NE,44,0.0,0.0,82,0.00,,,0.00,Wunderground v.1.15,2013-04-15 09:33:00,
2013-04-15 05:39:00,36.1,31.1,30.29,NE,44,0.0,0.0,82,0.00,,,0.00,Wunderground v.1.15,2013-04-15 09:39:00,
2013-04-15 05:44:00,36.1,31.4,30.29,NE,44,0.0,0.0,83,0.00,,,0.00,Wunderground v.1.15,2013-04-15 09:44:00,
2013-04-15 05:49:00,36.0,31.6,30.29,NE,44,0.0,0.0,84,0.00,,,0.00,Wunderground v.1.15,2013-04-15 09:49:00,
2013-04-15 05:55:00,36.0,31.6,30.29,NE,44,0.0,0.0,84,0.00,,,0.00,Wunderground v.1.15,2013-04-15 09:55:00,
2013-04-15 06:00:00,36.3,31.6,30.30,NE,44,0.0,0.0,83,0.00,,,0.00,Wunderground v.1.15,2013-04-15 10:00:00,
2013-04-15 06:06:00,36.4,31.7,30.30,NE,44,0.0,0.0,83,0.00,,,0.00,Wunderground v.1.15,2013-04-15 10:06:00,
2013-04-15 06:11:00,36.5,31.2,30.30,NE,44,0.0,0.0,81,0.00,,,0.00,Wunderground v.1.15,2013-04-15 10:11:00,
2013-04-15 06:16:00,36.7,31.7,30.30,NE,44,0.0,0.0,82,0.00,,,0.00,Wunderground v.1.15,2013-04-15 10:16:00,
2013-04-15 06:22:00,36.8,31.8,30.31,NE,44,0.0,0.0,82,0.00,,,0.00,Wunderground v.1.15,2013-04-15 10:22:00,
2013-04-15 06:27:00,36.8,31.5,30.31,NE,44,0.0,0.0,81,0.00,,,0.00,Wunderground v.1.15,2013-04-15 10:27:00,
2013-04-15 06:32:00,37.1,31.8,30.30,NE,44,0.0,0.0,81,0.00,,,0.00,Wunderground v.1.15,2013-04-15 10:32:00,
2013-04-15 06:37:00,37.3,32.0,30.31,NE,44,0.0,0.0,81,0.00,,,0.00,Wunderground v.1.15,2013-04-15 10:37:00,
2013-04-15 06:43:00,37.4,32.1,30.30,NE,44,0.0,0.0,81,0.00,,,0.00,Wunderground v.1.15,2013-04-15 10:43:00,
2013-04-15 06:49:00,37.4,32.1,30.30,NE,44,0.0,0.0,81,0.00,,,0.00,Wunderground v.1.15,2013-04-15 10:49:00,
2013-04-15 06:54:00,37.4,31.8,30.30,NE,44,0.0,0.0,80,0.00,,,0.00,Wunderground v.1.15,2013-04-15 10:54:00,
2013-04-15 06:59:00,37.6,32.3,30.30,NE,44,0.0,0.0,81,0.00,,,0.00,Wunderground v.1.15,2013-04-15 10:59:00,
2013-04-15 07:05:00,37.7,31.5,30.31,NE,44,0.0,0.0,78,0.00,,,0.00,Wunderground v.1.15,2013-04-15 11:05:00,
2013-04-15 07:11:00,37.9,31.7,30.31,NE,44,0.0,0.0,78,0.00,,,0.00,Wunderground v.1.15,2013-04-15 11:11:00,
2013-04-15 07:17:00,38.4,31.5,30.31,NE,44,0.0,0.0,76,0.00,,,0.00,Wunderground v.1.15,2013-04-15 11:17:00,
2013-04-15 07:23:00,38.9,31.6,30.31,NNE,17,0.0,0.0,75,0.00,,,0.00,Wunderground v.1.15,2013-04-15 11:23:00,
2013-04-15 07:28:00,39.3,30.7,30.32,NNE,17,0.0,0.0,71,0.00,,,0.00,Wunderground v.1.15,2013-04-15 11:28:00,
2013-04-15 07:33:00,39.6,31.3,30.32,NNE,17,0.0,0.0,72,0.00,,,0.00,Wunderground v.1.15,2013-04-15 11:33:00,
2013-04-15 07:38:00,40.3,30.9,30.33,NNE,17,0.0,0.0,69,0.00,,,0.00,Wunderground v.1.15,2013-04-15 11:38:00,
2013-04-15 07:44:00,40.7,29.5,30.33,NNE,17,0.0,0.0,64,0.00,,,0.00,Wunderground v.1.15,2013-04-15 11:44:00,
2013-04-15 07:50:00,41.2,28.8,30.33,NNE,17,0.0,0.0,61,0.00,,,0.00,Wunderground v.1.15,2013-04-15 11:50:00,
2013-04-15 07:55:00,41.6,28.7,30.33,NNE,17,0.0,0.0,60,0.00,,,0.00,Wunderground v.1.15,2013-04-15 11:55:00,
2013-04-15 08:00:00,41.9,28.2,30.34,NNE,20,0.0,0.0,58,0.00,,,0.00,Wunderground v.1.15,2013-04-15 12:00:00,
2013-04-15 08:06:00,42.3,28.1,30.34,NE,49,0.0,0.0,57,0.00,,,0.00,Wunderground v.1.15,2013-04-15 12:06:00,
2013-04-15 08:11:00,42.6,27.1,30.34,NNE,23,0.0,0.0,54,0.00,,,0.00,Wunderground v.1.15,2013-04-15 12:11:00,
2013-04-15 08:16:00,43.3,27.8,30.34,ENE,75,0.0,0.0,54,0.00,,,0.00,Wunderground v.1.15,2013-04-15 12:16:00,
2013-04-15 08:22:00,43.5,27.0,30.34,ENE,75,0.0,0.0,52,0.00,,,0.00,Wunderground v.1.15,2013-04-15 12:22:00,
2013-04-15 08:27:00,43.7,27.2,30.34,SE,137,0.0,0.0,52,0.00,,,0.00,Wunderground v.1.15,2013-04-15 12:27:00,
2013-04-15 08:33:00,44.1,27.6,30.35,ENE,57,0.0,0.0,52,0.00,,,0.00,Wunderground v.1.15,2013-04-15 12:33:00,
2013-04-15 08:39:00,44.4,26.9,30.35,SE,137,0.0,0.0,50,0.00,,,0.00,Wunderground v.1.15,2013-04-15 12:39:00,
2013-04-15 08:44:00,44.6,28.0,30.35,SE,146,0.0,0.0,52,0.00,,,0.00,Wunderground v.1.15,2013-04-15 12:44:00,
2013-04-15 08:49:00,44.9,27.4,30.35,SE,131,0.0,0.0,50,0.00,,,0.00,Wunderground v.1.15,2013-04-15 12:49:00,
2013-04-15 08:55:00,45.2,27.2,30.35,SSE,154,0.0,0.0,49,0.00,,,0.00,Wunderground v.1.15,2013-04-15 12:55:00,
2013-04-15 09:00:00,45.3,26.7,30.35,East,101,0.0,0.0,48,0.00,,,0.00,Wunderground v.1.15,2013-04-15 13:00:00,
2013-04-15 09:06:00,45.4,26.8,30.36,SSE,159,0.0,0.0,48,0.00,,,0.00,Wunderground v.1.15,2013-04-15 13:06:00,
2013-04-15 09:12:00,45.5,26.4,30.36,ESE,104,0.0,0.0,47,0.00,,,0.00,Wunderground v.1.15,2013-04-15 13:12:00,
2013-04-15 09:17:00,45.6,27.0,30.36,ESE,109,0.0,0.0,48,0.00,,,0.00,Wunderground v.1.15,2013-04-15 13:17:00,
2013-04-15 09:23:00,45.8,27.2,30.36,ESE,119,0.0,0.0,48,0.00,,,0.00,Wunderground v.1.15,2013-04-15 13:23:00,
2013-04-15 09:29:00,46.0,26.9,30.36,ESE,112,1.0,3.0,47,0.00,,,0.00,Wunderground v.1.15,2013-04-15 13:29:00,
2013-04-15 09:34:00,46.0,27.4,30.36,South,182,2.0,6.0,48,0.00,,,0.00,Wunderground v.1.15,2013-04-15 13:34:00,
2013-04-15 09:39:00,46.1,27.0,30.36,SSE,159,3.0,6.0,47,0.00,,,0.00,Wunderground v.1.15,2013-04-15 13:39:00,
2013-04-15 09:44:00,46.4,27.8,30.36,East,96,3.0,3.0,48,0.00,,,0.00,Wunderground v.1.15,2013-04-15 13:44:00,
2013-04-15 09:49:00,46.8,27.6,30.36,ESE,113,2.0,7.0,47,0.00,,,0.00,Wunderground v.1.15,2013-04-15 13:49:00,
2013-04-15 09:54:00,47.0,27.8,30.36,SE,132,4.0,10.0,47,0.00,,,0.00,Wunderground v.1.15,2013-04-15 13:54:00,
2013-04-15 09:59:00,47.4,28.2,30.36,South,174,4.0,10.0,47,0.00,,,0.00,Wunderground v.1.15,2013-04-15 13:59:00,
2013-04-15 10:04:00,47.6,28.9,30.35,East,96,4.0,6.0,48,0.00,,,0.00,Wunderground v.1.15,2013-04-15 14:04:00,
2013-04-15 10:10:00,48.0,27.6,30.35,ESE,107,4.0,4.0,45,0.00,,,0.00,Wunderground v.1.15,2013-04-15 14:10:00,
2013-04-15 10:15:00,48.2,27.8,30.35,East,81,3.0,5.0,45,0.00,,,0.00,Wunderground v.1.15,2013-04-15 14:15:00,
2013-04-15 10:21:00,47.9,27.6,30.35,East,90,4.0,6.0,45,0.00,,,0.00,Wunderground v.1.15,2013-04-15 14:21:00,
2013-04-15 10:26:00,47.9,27.6,30.35,ESE,119,6.0,9.0,45,0.00,,,0.00,Wunderground v.1.15,2013-04-15 14:26:00,
2013-04-15 10:32:00,48.3,27.4,30.35,SSE,150,5.0,5.0,44,0.00,,,0.00,Wunderground v.1.15,2013-04-15 14:32:00,
2013-04-15 10:37:00,48.7,27.7,30.35,SSW,210,3.0,5.0,44,0.00,,,0.00,Wunderground v.1.15,2013-04-15 14:37:00,
2013-04-15 10:43:00,48.7,27.7,30.35,SE,146,3.0,4.0,44,0.00,,,0.00,Wunderground v.1.15,2013-04-15 14:43:00,
2013-04-15 10:49:00,48.8,27.3,30.35,ESE,111,3.0,8.0,43,0.00,,,0.00,Wunderground v.1.15,2013-04-15 14:49:00,
2013-04-15 10:54:00,48.6,27.6,30.35,ESE,109,5.0,9.0,44,0.00,,,0.00,Wunderground v.1.15,2013-04-15 14:54:00,
2013-04-15 10:59:00,48.5,27.6,30.35,ESE,119,5.0,9.0,44,0.00,,,0.00,Wunderground v.1.15,2013-04-15 14:59:00,
2013-04-15 11:04:00,48.9,27.4,30.35,ESE,105,5.0,10.0,43,0.00,,,0.00,Wunderground v.1.15,2013-04-15 15:04:00,
2013-04-15 11:09:00,49.1,27.5,30.35,SE,132,5.0,10.0,43,0.00,,,0.00,Wunderground v.1.15,2013-04-15 15:09:00,
2013-04-15 11:14:00,49.3,28.3,30.35,SE,130,5.0,5.0,44,0.00,,,0.00,Wunderground v.1.15,2013-04-15 15:14:00,
2013-04-15 11:20:00,49.6,28.0,30.34,ESE,122,4.0,4.0,43,0.00,,,0.00,Wunderground v.1.15,2013-04-15 15:20:00,
2013-04-15 11:26:00,49.7,26.9,30.34,SSE,147,4.0,8.0,41,0.00,,,0.00,Wunderground v.1.15,2013-04-15 15:26:00,
2013-04-15 11:31:00,49.4,27.2,30.34,NE,42,4.0,5.0,42,0.00,,,0.00,Wunderground v.1.15,2013-04-15 15:31:00,
2013-04-15 11:36:00,50.1,27.3,30.34,East,80,4.0,5.0,41,0.00,,,0.00,Wunderground v.1.15,2013-04-15 15:36:00,
2013-04-15 11:42:00,50.5,28.2,30.34,NE,53,3.0,3.0,42,0.00,,,0.00,Wunderground v.1.15,2013-04-15 15:42:00,
2013-04-15 11:47:00,50.4,28.1,30.33,East,88,4.0,9.0,42,0.00,,,0.00,Wunderground v.1.15,2013-04-15 15:47:00,
2013-04-15 11:53:00,50.2,28.0,30.33,East,101,5.0,7.0,42,0.00,,,0.00,Wunderground v.1.15,2013-04-15 15:53:00,
2013-04-15 11:59:00,50.4,28.1,30.34,SE,144,5.0,10.0,42,0.00,,,0.00,Wunderground v.1.15,2013-04-15 15:59:00,
2013-04-15 12:04:00,50.7,29.0,30.34,East,84,5.0,7.0,43,0.00,,,0.00,Wunderground v.1.15,2013-04-15 16:04:00,
2013-04-15 12:09:00,50.7,28.4,30.34,SE,127,4.0,7.0,42,0.00,,,0.00,Wunderground v.1.15,2013-04-15 16:09:00,
2013-04-15 12:14:00,50.9,28.6,30.33,East,86,5.0,5.0,42,0.00,,,0.00,Wunderground v.1.15,2013-04-15 16:14:00,
2013-04-15 12:20:00,51.3,29.5,30.33,South,190,4.0,4.0,43,0.00,,,0.00,Wunderground v.1.15,2013-04-15 16:20:00,
2013-04-15 12:25:00,51.6,29.2,30.33,ESE,111,4.0,4.0,42,0.00,,,0.00,Wunderground v.1.15,2013-04-15 16:25:00,
2013-04-15 12:31:00,52.5,30.0,30.33,South,184,3.0,3.0,42,0.00,,,0.00,Wunderground v.1.15,2013-04-15 16:31:00,
2013-04-15 12:36:00,52.5,29.5,30.33,South,172,3.0,5.0,41,0.00,,,0.00,Wunderground v.1.15,2013-04-15 16:36:00,
2013-04-15 12:41:00,52.6,29.5,30.33,ESE,113,4.0,7.0,41,0.00,,,0.00,Wunderground v.1.15,2013-04-15 16:41:00,
2013-04-15 12:47:00,52.1,29.7,30.32,SSE,150,4.0,9.0,42,0.00,,,0.00,Wunderground v.1.15,2013-04-15 16:47:00,
2013-04-15 12:52:00,51.9,28.9,30.32,ESE,120,5.0,6.0,41,0.00,,,0.00,Wunderground v.1.15,2013-04-15 16:52:00,
2013-04-15 12:58:00,52.4,30.5,30.33,SE,144,5.0,7.0,43,0.00,,,0.00,Wunderground v.1.15,2013-04-15 16:58:00,
2013-04-15 13:03:00,52.8,29.1,30.32,SSW,194,4.0,5.0,40,0.00,,,0.00,Wunderground v.1.15,2013-04-15 17:03:00,
2013-04-15 13:09:00,52.4,29.4,30.32,SSE,154,5.0,8.0,41,0.00,,,0.00,Wunderground v.1.15,2013-04-15 17:09:00,
2013-04-15 13:14:00,52.2,29.2,30.33,SE,140,6.0,10.0,41,0.00,,,0.00,Wunderground v.1.15,2013-04-15 17:14:00,
2013-04-15 13:20:00,52.7,29.6,30.33,SE,138,5.0,5.0,41,0.00,,,0.00,Wunderground v.1.15,2013-04-15 17:20:00,
2013-04-15 13:21:00,53.0,30.5,30.32,SSE,156,5.0,5.0,42,0.00,,,0.00,Wunderground v.1.15,2013-04-15 17:21:00,
2013-04-15 13:22:00,53.3,30.8,30.32,South,187,5.0,5.0,42,0.00,,,0.00,Wunderground v.1.15,2013-04-15 17:22:00,
2013-04-15 13:24:00,53.8,30.6,30.32,SSW,199,4.0,5.0,41,0.00,,,0.00,Wunderground v.1.15,2013-04-15 17:24:00,
2013-04-15 13:29:00,53.9,29.5,30.32,ESE,123,4.0,8.0,39,0.00,,,0.00,Wunderground v.1.15,2013-04-15 17:29:00,
2013-04-15 13:31:00,53.8,30.0,30.32,SE,146,4.0,8.0,40,0.00,,,0.00,Wunderground v.1.15,2013-04-15 17:31:00,
2013-04-15 13:37:00,53.8,30.0,30.32,ESE,104,6.0,11.0,40,0.00,,,0.00,Wunderground v.1.15,2013-04-15 17:37:00,
2013-04-15 13:42:00,53.5,30.4,30.32,South,183,6.0,6.0,41,0.00,,,0.00,Wunderground v.1.15,2013-04-15 17:42:00,
2013-04-15 13:47:00,53.6,31.6,30.32,South,171,6.0,9.0,43,0.00,,,0.00,Wunderground v.1.15,2013-04-15 17:47:00,
2013-04-15 13:52:00,53.9,31.3,30.32,South,175,5.0,5.0,42,0.00,,,0.00,Wunderground v.1.15,2013-04-15 17:52:00,
2013-04-15 13:57:00,54.4,30.6,30.32,South,182,5.0,8.0,40,0.00,,,0.00,Wunderground v.1.15,2013-04-15 17:57:00,
2013-04-15 14:03:00,54.6,31.3,30.32,ENE,76,4.0,5.0,41,0.00,,,0.00,Wunderground v.1.15,2013-04-15 18:03:00,
2013-04-15 14:09:00,54.6,31.3,30.31,SE,142,4.0,8.0,41,0.00,,,0.00,Wunderground v.1.15,2013-04-15 18:09:00,
2013-04-15 14:14:00,54.4,30.6,30.31,ESE,117,5.0,13.0,40,0.00,,,0.00,Wunderground v.1.15,2013-04-15 18:14:00,
2013-04-15 14:19:00,54.2,31.0,30.31,ESE,123,6.0,13.0,41,0.00,,,0.00,Wunderground v.1.15,2013-04-15 18:19:00,
2013-04-15 14:25:00,54.7,31.4,30.31,ESE,118,6.0,9.0,41,0.00,,,0.00,Wunderground v.1.15,2013-04-15 18:25:00,
2013-04-15 14:29:00,55.2,31.9,30.31,SE,142,5.0,9.0,41,0.00,,,0.00,Wunderground v.1.15,2013-04-15 18:29:00,
2013-04-15 14:31:00,55.2,32.5,30.31,South,184,4.0,6.0,42,0.00,,,0.00,Wunderground v.1.15,2013-04-15 18:31:00,
2013-04-15 14:32:00,55.2,31.3,30.31,SE,141,4.0,6.0,40,0.00,,,0.00,Wunderground v.1.15,2013-04-15 18:32:00,
2013-04-15 14:37:00,55.4,32.1,30.31,SSE,148,4.0,7.0,41,0.00,,,0.00,Wunderground v.1.15,2013-04-15 18:37:00,
2013-04-15 14:38:00,55.5,32.8,30.31,SSE,153,5.0,7.0,42,0.00,,,0.00,Wunderground v.1.15,2013-04-15 18:38:00,
2013-04-15 14:43:00,55.0,31.1,30.31,SSW,205,5.0,5.0,40,0.00,,,0.00,Wunderground v.1.15,2013-04-15 18:43:00,
2013-04-15 14:49:00,55.4,32.1,30.30,SE,138,4.0,8.0,41,0.00,,,0.00,Wunderground v.1.15,2013-04-15 18:49:00,
2013-04-15 14:54:00,55.0,31.7,30.31,SSE,148,5.0,8.0,41,0.00,,,0.00,Wunderground v.1.15,2013-04-15 18:54:00,
2013-04-15 14:59:00,55.0,31.7,30.31,SE,137,6.0,8.0,41,0.00,,,0.00,Wunderground v.1.15,2013-04-15 18:59:00,
2013-04-15 15:05:00,55.7,32.3,30.30,South,171,5.0,11.0,41,0.00,,,0.00,Wunderground v.1.15,2013-04-15 19:05:00,
2013-04-15 15:10:00,55.9,33.1,30.30,SE,146,4.0,12.0,42,0.00,,,0.00,Wunderground v.1.15,2013-04-15 19:10:00,
2013-04-15 15:15:00,55.0,32.3,30.30,SSW,202,5.0,12.0,42,0.00,,,0.00,Wunderground v.1.15,2013-04-15 19:15:00,
2013-04-15 15:20:00,55.2,32.5,30.30,SSE,165,6.0,6.0,42,0.00,,,0.00,Wunderground v.1.15,2013-04-15 19:20:00,
2013-04-15 15:26:00,54.7,32.0,30.31,SSW,200,6.0,9.0,42,0.00,,,0.00,Wunderground v.1.15,2013-04-15 19:26:00,
2013-04-15 15:31:00,55.2,32.5,30.31,ESE,103,5.0,8.0,42,0.00,,,0.00,Wunderground v.1.15,2013-04-15 19:31:00,
2013-04-15 15:36:00,55.3,32.6,30.30,ESE,112,5.0,8.0,42,0.00,,,0.00,Wunderground v.1.15,2013-04-15 19:36:00,
2013-04-15 15:42:00,55.0,32.3,30.30,SSE,161,6.0,9.0,42,0.00,,,0.00,Wunderground v.1.15,2013-04-15 19:42:00,
2013-04-15 15:47:00,55.7,32.9,30.30,South,184,5.0,9.0,42,0.00,,,0.00,Wunderground v.1.15,2013-04-15 19:47:00,
2013-04-15 15:52:00,55.7,32.3,30.30,South,175,4.0,10.0,41,0.00,,,0.00,Wunderground v.1.15,2013-04-15 19:52:00,
2013-04-15 15:57:00,55.4,32.7,30.30,SE,128,5.0,10.0,42,0.00,,,0.00,Wunderground v.1.15,2013-04-15 19:57:00,
2013-04-15 15:59:00,55.5,32.8,30.30,South,184,5.0,10.0,42,0.00,,,0.00,Wunderground v.1.15,2013-04-15 19:59:00,
2013-04-15 16:01:00,55.4,32.7,30.30,SSE,159,5.0,6.0,42,0.00,,,0.00,Wunderground v.1.15,2013-04-15 20:01:00,
2013-04-15 16:02:00,55.4,33.3,30.30,SSW,209,5.0,6.0,43,0.00,,,0.00,Wunderground v.1.15,2013-04-15 20:02:00,
2013-04-15 16:04:00,55.3,32.0,30.30,SE,125,5.0,6.0,41,0.00,,,0.00,Wunderground v.1.15,2013-04-15 20:04:00,
2013-04-15 16:07:00,55.4,33.3,30.30,SE,142,5.0,6.0,43,0.00,,,0.00,Wunderground v.1.15,2013-04-15 20:07:00,
2013-04-15 16:10:00,55.3,32.6,30.30,SSW,195,5.0,5.0,42,0.00,,,0.00,Wunderground v.1.15,2013-04-15 20:10:00,
2013-04-15 16:15:00,55.2,33.1,30.29,South,185,5.0,6.0,43,0.00,,,0.00,Wunderground v.1.15,2013-04-15 20:15:00,
2013-04-15 16:21:00,55.5,33.3,30.28,South,185,4.0,5.0,43,0.00,,,0.00,Wunderground v.1.15,2013-04-15 20:21:00,
2013-04-15 16:26:00,55.4,33.3,30.28,SE,142,6.0,6.0,43,0.00,,,0.00,Wunderground v.1.15,2013-04-15 20:26:00,
2013-04-15 16:32:00,55.0,32.9,30.28,SSW,192,6.0,8.0,43,0.00,,,0.00,Wunderground v.1.15,2013-04-15 20:32:00,
2013-04-15 16:39:00,54.7,32.6,30.28,SSE,161,6.0,8.0,43,0.00,,,0.00,Wunderground v.1.15,2013-04-15 20:39:00,
2013-04-15 16:44:00,54.4,32.9,30.28,South,169,6.0,9.0,44,0.00,,,0.00,Wunderground v.1.15,2013-04-15 20:44:00,
2013-04-15 16:49:00,54.7,33.2,30.28,SE,136,5.0,10.0,44,0.00,,,0.00,Wunderground v.1.15,2013-04-15 20:49:00,
2013-04-15 16:54:00,54.3,32.8,30.28,South,173,6.0,11.0,44,0.00,,,0.00,Wunderground v.1.15,2013-04-15 20:54:00,
2013-04-15 16:59:00,54.0,32.6,30.28,SE,136,7.0,11.0,44,0.00,,,0.00,Wunderground v.1.15,2013-04-15 20:59:00,
2013-04-15 17:04:00,54.1,32.6,30.28,South,174,6.0,8.0,44,0.00,,,0.00,Wunderground v.1.15,2013-04-15 21:04:00,
2013-04-15 17:10:00,54.2,32.7,30.29,South,182,6.0,6.0,44,0.00,,,0.00,Wunderground v.1.15,2013-04-15 21:10:00,
2013-04-15 17:15:00,54.2,32.7,30.30,SSW,202,6.0,7.0,44,0.00,,,0.00,Wunderground v.1.15,2013-04-15 21:15:00,
2013-04-15 17:20:00,54.4,32.9,30.30,SSW,196,4.0,4.0,44,0.00,,,0.00,Wunderground v.1.15,2013-04-15 21:20:00,
2013-04-15 17:25:00,54.2,32.7,30.30,SSE,152,4.0,10.0,44,0.00,,,0.00,Wunderground v.1.15,2013-04-15 21:25:00,
2013-04-15 17:30:00,53.9,32.5,30.30,ESE,109,5.0,5.0,44,0.00,,,0.00,Wunderground v.1.15,2013-04-15 21:30:00,
2013-04-15 17:35:00,54.0,32.6,30.31,SSE,157,4.0,11.0,44,0.00,,,0.00,Wunderground v.1.15,2013-04-15 21:35:00,
2013-04-15 17:40:00,53.7,32.8,30.31,SSE,156,5.0,7.0,45,0.00,,,0.00,Wunderground v.1.15,2013-04-15 21:40:00,
2013-04-15 17:45:00,53.6,32.8,30.31,ESE,106,6.0,7.0,45,0.00,,,0.00,Wunderground v.1.15,2013-04-15 21:45:00,
2013-04-15 17:51:00,53.2,32.4,30.31,SSE,150,4.0,4.0,45,0.00,,,0.00,Wunderground v.1.15,2013-04-15 21:51:00,
2013-04-15 17:56:00,52.6,31.8,30.31,South,178,4.0,10.0,45,0.00,,,0.00,Wunderground v.1.15,2013-04-15 21:56:00,
2013-04-15 18:01:00,52.6,32.4,30.32,ESE,121,5.0,5.0,46,0.00,,,0.00,Wunderground v.1.15,2013-04-15 22:01:00,
2013-04-15 18:07:00,52.9,32.1,30.32,SSE,166,4.0,5.0,45,0.00,,,0.00,Wunderground v.1.15,2013-04-15 22:07:00,
2013-04-15 18:12:00,52.9,32.7,30.32,SSW,209,3.0,6.0,46,0.00,,,0.00,Wunderground v.1.15,2013-04-15 22:12:00,
2013-04-15 18:18:00,52.6,32.4,30.31,SSW,197,4.0,10.0,46,0.00,,,0.00,Wunderground v.1.15,2013-04-15 22:18:00,
2013-04-15 18:23:00,52.4,32.2,30.32,SW,225,5.0,6.0,46,0.00,,,0.00,Wunderground v.1.15,2013-04-15 22:23:00,
2013-04-15 18:28:00,52.2,32.6,30.32,South,183,4.0,6.0,47,0.00,,,0.00,Wunderground v.1.15,2013-04-15 22:28:00,
2013-04-15 18:34:00,52.2,31.5,30.32,SE,141,4.0,7.0,45,0.00,,,0.00,Wunderground v.1.15,2013-04-15 22:34:00,
2013-04-15 18:39:00,52.5,32.3,30.32,South,177,4.0,7.0,46,0.00,,,0.00,Wunderground v.1.15,2013-04-15 22:39:00,
2013-04-15 18:44:00,52.5,32.3,30.31,SE,146,4.0,8.0,46,0.00,,,0.00,Wunderground v.1.15,2013-04-15 22:44:00,
2013-04-15 18:50:00,52.5,31.8,30.32,South,189,4.0,4.0,45,0.00,,,0.00,Wunderground v.1.15,2013-04-15 22:50:00,
2013-04-15 18:55:00,52.3,31.6,30.32,SE,142,4.0,6.0,45,0.00,,,0.00,Wunderground v.1.15,2013-04-15 22:55:00,
2013-04-15 19:00:00,52.0,31.8,30.32,SSE,159,4.0,6.0,46,0.00,,,0.00,Wunderground v.1.15,2013-04-15 23:00:00,
2013-04-15 19:06:00,51.9,31.7,30.31,SSE,149,4.0,8.0,46,0.00,,,0.00,Wunderground v.1.15,2013-04-15 23:06:00,
2013-04-15 19:11:00,51.7,31.6,30.31,South,174,4.0,5.0,46,0.00,,,0.00,Wunderground v.1.15,2013-04-15 23:11:00,
2013-04-15 19:16:00,51.4,31.3,30.32,SSE,164,4.0,9.0,46,0.00,,,0.00,Wunderground v.1.15,2013-04-15 23:16:00,
2013-04-15 19:22:00,51.2,32.2,30.32,South,173,4.0,5.0,48,0.00,,,0.00,Wunderground v.1.15,2013-04-15 23:22:00,
2013-04-15 19:27:00,51.1,32.1,30.32,SSE,168,3.0,6.0,48,0.00,,,0.00,Wunderground v.1.15,2013-04-15 23:27:00,
2013-04-15 19:34:00,50.8,31.8,30.32,South,173,3.0,5.0,48,0.00,,,0.00,Wunderground v.1.15,2013-04-15 23:34:00,
2013-04-15 19:39:00,50.7,31.7,30.32,SSE,158,3.0,5.0,48,0.00,,,0.00,Wunderground v.1.15,2013-04-15 23:39:00,
2013-04-15 19:44:00,50.5,32.0,30.33,South,191,2.0,4.0,49,0.00,,,0.00,Wunderground v.1.15,2013-04-15 23:44:00,
2013-04-15 19:49:00,50.4,32.4,30.33,South,171,2.0,4.0,50,0.00,,,0.00,Wunderground v.1.15,2013-04-15 23:49:00,
2013-04-15 19:54:00,50.2,32.3,30.33,South,183,2.0,4.0,50,0.00,,,0.00,Wunderground v.1.15,2013-04-15 23:54:00,
2013-04-15 20:00:00,50.0,32.1,30.34,South,184,2.0,2.0,50,0.00,,,0.00,Wunderground v.1.15,2013-04-16 00:00:00,
2013-04-15 20:06:00,49.8,32.4,30.34,South,171,2.0,2.0,51,0.00,,,0.00,Wunderground v.1.15,2013-04-16 00:06:00,
2013-04-15 20:12:00,49.6,32.7,30.33,SSE,147,2.0,2.0,52,0.00,,,0.00,Wunderground v.1.15,2013-04-16 00:12:00,
2013-04-15 20:17:00,49.4,32.5,30.33,SSE,165,2.0,3.0,52,0.00,,,0.00,Wunderground v.1.15,2013-04-16 00:17:00,
2013-04-15 20:23:00,49.1,32.7,30.34,SE,136,1.0,2.0,53,0.00,,,0.00,Wunderground v.1.15,2013-04-16 00:23:00,
2013-04-15 20:29:00,48.9,33.0,30.33,SE,146,1.0,4.0,54,0.00,,,0.00,Wunderground v.1.15,2013-04-16 00:29:00,
2013-04-15 20:34:00,48.7,32.8,30.34,SSE,159,2.0,2.0,54,0.00,,,0.00,Wunderground v.1.15,2013-04-16 00:34:00,
2013-04-15 20:40:00,48.5,33.1,30.34,SSE,164,2.0,2.0,55,0.00,,,0.00,Wunderground v.1.15,2013-04-16 00:40:00,
2013-04-15 20:45:00,48.3,33.3,30.34,South,173,2.0,4.0,56,0.00,,,0.00,Wunderground v.1.15,2013-04-16 00:45:00,
2013-04-15 20:50:00,48.1,33.6,30.34,SSE,161,2.0,4.0,57,0.00,,,0.00,Wunderground v.1.15,2013-04-16 00:50:00,
2013-04-15 20:55:00,48.0,33.5,30.35,South,186,2.0,4.0,57,0.00,,,0.00,Wunderground v.1.15,2013-04-16 00:55:00,
2013-04-15 21:00:00,47.7,33.6,30.35,SSW,194,2.0,2.0,58,0.00,,,0.00,Wunderground v.1.15,2013-04-16 01:00:00,
2013-04-15 21:06:00,47.5,33.9,30.35,SSW,195,2.0,4.0,59,0.00,,,0.00,Wunderground v.1.15,2013-04-16 01:06:00,
2013-04-15 21:12:00,47.3,34.1,30.35,SSW,204,1.0,2.0,60,0.00,,,0.00,Wunderground v.1.15,2013-04-16 01:12:00,
2013-04-15 21:17:00,47.1,33.9,30.36,South,181,1.0,4.0,60,0.00,,,0.00,Wunderground v.1.15,2013-04-16 01:17:00,
2013-04-15 21:22:00,46.9,34.1,30.35,South,186,1.0,2.0,61,0.00,,,0.00,Wunderground v.1.15,2013-04-16 01:22:00,
2013-04-15 21:27:00,46.8,34.5,30.36,South,180,1.0,4.0,62,0.00,,,0.00,Wunderground v.1.15,2013-04-16 01:27:00,
2013-04-15 21:32:00,46.7,34.8,30.36,SSE,167,2.0,2.0,63,0.00,,,0.00,Wunderground v.1.15,2013-04-16 01:32:00,
2013-04-15 21:37:00,46.6,35.1,30.36,SSE,164,2.0,4.0,64,0.00,,,0.00,Wunderground v.1.15,2013-04-16 01:37:00,
2013-04-15 21:42:00,46.5,35.0,30.36,South,178,2.0,4.0,64,0.00,,,0.00,Wunderground v.1.15,2013-04-16 01:42:00,
2013-04-15 21:47:00,46.4,35.3,30.36,SSE,167,2.0,4.0,65,0.00,,,0.00,Wunderground v.1.15,2013-04-16 01:47:00,
2013-04-15 21:52:00,46.3,35.2,30.36,South,188,2.0,3.0,65,0.00,,,0.00,Wunderground v.1.15,2013-04-16 01:52:00,
2013-04-15 21:57:00,46.2,35.5,30.37,South,174,1.0,3.0,66,0.00,,,0.00,Wunderground v.1.15,2013-04-16 01:57:00,
2013-04-15 22:03:00,46.0,35.7,30.37,SE,142,2.0,2.0,67,0.00,,,0.00,Wunderground v.1.15,2013-04-16 02:03:00,
2013-04-15 22:08:00,45.9,35.6,30.36,South,175,1.0,2.0,67,0.00,,,0.00,Wunderground v.1.15,2013-04-16 02:08:00,
2013-04-15 22:14:00,45.8,35.8,30.36,SE,126,1.0,3.0,68,0.00,,,0.00,Wunderground v.1.15,2013-04-16 02:14:00,
2013-04-15 22:19:00,45.6,35.6,30.36,SSE,159,1.0,3.0,68,0.00,,,0.00,Wunderground v.1.15,2013-04-16 02:19:00,
2013-04-15 22:25:00,45.5,35.2,30.36,South,177,1.0,2.0,67,0.00,,,0.00,Wunderground v.1.15,2013-04-16 02:25:00,
2013-04-15 22:31:00,45.4,35.1,30.36,South,172,1.0,1.0,67,0.00,,,0.00,Wunderground v.1.15,2013-04-16 02:31:00,
2013-04-15 22:36:00,45.3,35.0,30.36,SSE,163,1.0,1.0,67,0.00,,,0.00,Wunderground v.1.15,2013-04-16 02:36:00,
2013-04-15 22:41:00,45.1,34.8,30.36,South,184,1.0,1.0,67,0.00,,,0.00,Wunderground v.1.15,2013-04-16 02:41:00,
2013-04-15 22:46:00,45.0,34.3,30.36,SE,144,1.0,1.0,66,0.00,,,0.00,Wunderground v.1.15,2013-04-16 02:46:00,
2013-04-15 22:51:00,45.0,34.3,30.36,SSE,160,1.0,1.0,66,0.00,,,0.00,Wunderground v.1.15,2013-04-16 02:51:00,
2013-04-15 22:57:00,44.9,34.2,30.36,SE,135,1.0,2.0,66,0.00,,,0.00,Wunderground v.1.15,2013-04-16 02:57:00,
2013-04-15 23:02:00,44.8,34.5,30.36,SSE,159,1.0,1.0,67,0.00,,,0.00,Wunderground v.1.15,2013-04-16 03:02:00,
2013-04-15 23:07:00,44.7,34.8,30.36,SSE,149,0.0,1.0,68,0.00,,,0.00,Wunderground v.1.15,2013-04-16 03:07:00,
2013-04-15 23:12:00,44.6,34.7,30.36,SSE,150,0.0,2.0,68,0.00,,,0.00,Wunderground v.1.15,2013-04-16 03:12:00,
2013-04-15 23:18:00,44.4,34.9,30.36,SSE,150,0.0,2.0,69,0.00,,,0.00,Wunderground v.1.15,2013-04-16 03:18:00,
2013-04-15 23:23:00,44.2,35.0,30.36,SSE,150,0.0,1.0,70,0.00,,,0.00,Wunderground v.1.15,2013-04-16 03:23:00,
2013-04-15 23:28:00,44.1,35.3,30.36,SSE,150,0.0,1.0,71,0.00,,,0.00,Wunderground v.1.15,2013-04-16 03:28:00,
2013-04-15 23:33:00,43.9,34.7,30.37,SSE,150,0.0,0.0,70,0.00,,,0.00,Wunderground v.1.15,2013-04-16 03:33:00,
2013-04-15 23:38:00,43.7,34.9,30.37,SSE,150,0.0,0.0,71,0.00,,,0.00,Wunderground v.1.15,2013-04-16 03:38:00,
2013-04-15 23:43:00,43.7,34.9,30.37,SSE,150,0.0,0.0,71,0.00,,,0.00,Wunderground v.1.15,2013-04-16 03:43:00,
2013-04-15 23:48:00,43.5,34.7,30.36,SSE,150,0.0,0.0,71,0.00,,,0.00,Wunderground v.1.15,2013-04-16 03:48:00,
2013-04-15 23:53:00,43.1,34.7,30.36,SSE,150,0.0,0.0,72,0.00,,,0.00,Wunderground v.1.15,2013-04-16 03:53:00,
2013-04-15 23:58:00,42.6,34.5,30.36,SSE,150,0.0,0.0,73,0.00,,,0.00,Wunderground v.1.15,2013-04-16 03:58:00,